Time;durP1;ratioP1;P1;durP2;ratioP2;P2;SDS_P1;SDS_P2;PMS_P1;PMS_P2;Temp;Humidity;BMP_temperature;BMP_pressure;BME280_temperature;BME280_humidity;BME280_pressure;Samples;Min_cycle;Max_cycle;Signal;HPM_P1;HPM_P2
2021/11/28 00:00:57;;;;;;;0.90;0.63;;;7.50;99.90;;;;;;5034501;28;20535;-72
2021/11/28 00:04:01;;;;;;;1.48;0.70;;;7.50;99.90;;;;;;5034562;28;20037;-72
2021/11/28 00:07:09;;;;;;;2.13;1.05;;;7.60;99.90;;;;;;5034437;28;20160;-71
2021/11/28 00:16:49;;;;;;;0.63;0.55;;;7.80;99.90;;;;;;5031710;28;20041;-72
2021/11/28 00:19:53;;;;;;;2.63;1.40;;;8.00;99.90;;;;;;5033402;28;20457;-71
2021/11/28 00:22:56;;;;;;;5.38;2.53;;;8.10;99.90;;;;;;5033783;28;20025;-71
2021/11/28 00:26:01;;;;;;;3.50;1.77;;;8.10;99.90;;;;;;5033940;28;20037;-70
2021/11/28 00:29:08;;;;;;;3.88;1.77;;;8.30;99.90;;;;;;5032478;28;20042;-71
2021/11/28 00:32:12;;;;;;;5.78;2.80;;;8.30;99.90;;;;;;5028069;28;20041;-71
2021/11/28 00:35:16;;;;;;;9.38;3.20;;;8.30;99.90;;;;;;5034054;28;20492;-72
2021/11/28 00:38:20;;;;;;;10.93;6.60;;;8.40;99.90;;;;;;5033212;28;20519;-72
2021/11/28 00:41:24;;;;;;;14.52;8.52;;;8.40;99.90;;;;;;5034173;28;20044;-72
2021/11/28 00:44:28;;;;;;;12.27;6.85;;;8.30;99.90;;;;;;5028392;28;20044;-71
2021/11/28 00:47:34;;;;;;;3.53;1.52;;;8.40;99.90;;;;;;5038222;28;20036;-72
2021/11/28 00:53:47;;;;;;;9.88;5.00;;;8.50;99.90;;;;;;5043936;28;20026;-72
2021/11/28 00:56:51;;;;;;;3.72;1.67;;;8.50;99.90;;;;;;5041993;28;20045;-72
2021/11/28 00:59:56;;;;;;;7.53;2.88;;;8.50;99.90;;;;;;5041898;28;20041;-72
2021/11/28 01:03:00;;;;;;;8.38;4.10;;;8.60;99.90;;;;;;5033518;28;20041;-72
2021/11/28 01:06:04;;;;;;;6.88;3.05;;;8.60;99.90;;;;;;5038415;28;20037;-72
2021/11/28 01:09:08;;;;;;;4.47;2.20;;;8.60;99.90;;;;;;5025421;28;20029;-72
2021/11/28 01:12:12;;;;;;;5.22;1.77;;;8.70;99.90;;;;;;5025848;28;20038;-72
2021/11/28 01:15:16;;;;;;;3.08;1.17;;;8.70;99.90;;;;;;5033470;28;20041;-72
2021/11/28 01:18:21;;;;;;;4.30;1.95;;;8.80;99.90;;;;;;5031826;28;20049;-72
2021/11/28 01:21:25;;;;;;;4.55;1.02;;;8.80;99.90;;;;;;5029562;28;20045;-72
2021/11/28 01:24:30;;;;;;;4.00;1.20;;;8.70;99.90;;;;;;5031925;28;20045;-72
2021/11/28 01:27:35;;;;;;;3.38;1.17;;;8.70;99.90;;;;;;5034501;28;20037;-72
2021/11/28 01:30:39;;;;;;;1.20;0.90;;;8.70;99.90;;;;;;5029280;28;20488;-73
2021/11/28 01:33:43;;;;;;;4.25;1.10;;;8.70;99.90;;;;;;5029700;28;20037;-72
2021/11/28 01:36:48;;;;;;;2.70;1.23;;;8.70;99.90;;;;;;5029103;28;20046;-72
2021/11/28 01:39:52;;;;;;;7.78;2.58;;;8.70;99.90;;;;;;5039232;28;20033;-72
2021/11/28 01:43:04;;;;;;;4.28;1.35;;;8.80;99.90;;;;;;5032601;28;20037;-71
2021/11/28 01:46:08;;;;;;;6.80;1.63;;;8.70;99.90;;;;;;5037727;28;20030;-72
2021/11/28 01:49:13;;;;;;;8.70;3.17;;;8.80;99.90;;;;;;5035176;28;20033;-71
2021/11/28 01:52:19;;;;;;;6.85;2.17;;;8.80;99.90;;;;;;5036259;28;20464;-72
2021/11/28 01:55:28;;;;;;;13.93;3.75;;;8.90;99.90;;;;;;5030989;28;20041;-72
2021/11/28 01:58:32;;;;;;;8.57;1.45;;;8.80;99.90;;;;;;5041090;28;20060;-72
2021/11/28 02:01:37;;;;;;;2.40;1.20;;;8.90;99.90;;;;;;5027503;28;20049;-72
2021/11/28 02:04:43;;;;;;;2.50;1.20;;;8.80;99.90;;;;;;5031410;28;20037;-72
2021/11/28 02:07:48;;;;;;;6.05;1.20;;;8.80;99.90;;;;;;5029588;28;20033;-72
2021/11/28 02:10:52;;;;;;;6.40;1.77;;;8.80;99.90;;;;;;5029282;28;20369;-72
2021/11/28 02:13:57;;;;;;;7.10;2.03;;;8.90;99.90;;;;;;5039423;28;20034;-72
2021/11/28 02:17:02;;;;;;;3.17;1.50;;;9.00;99.90;;;;;;5036199;28;20049;-72
2021/11/28 02:20:08;;;;;;;4.35;1.00;;;8.90;99.90;;;;;;5027950;28;20041;-72
2021/11/28 02:23:13;;;;;;;1.38;0.93;;;8.90;99.90;;;;;;5031006;28;20030;-72
2021/11/28 02:26:16;;;;;;;5.13;1.50;;;8.80;99.90;;;;;;5031118;28;20033;-72
2021/11/28 02:29:21;;;;;;;4.43;1.30;;;8.80;99.90;;;;;;5029042;28;20025;-72
2021/11/28 02:32:26;;;;;;;7.63;1.45;;;8.70;99.90;;;;;;5034082;28;20030;-72
2021/11/28 02:35:33;;;;;;;4.00;1.63;;;8.70;99.90;;;;;;5026832;28;20041;-72
2021/11/28 02:38:38;;;;;;;4.40;1.58;;;8.70;99.90;;;;;;5027655;28;20041;-72
2021/11/28 02:41:42;;;;;;;3.22;1.23;;;8.70;99.90;;;;;;5038613;28;20041;-72
2021/11/28 02:44:47;;;;;;;4.10;1.10;;;8.70;99.90;;;;;;5039046;28;20049;-72
2021/11/28 02:47:55;;;;;;;4.53;1.23;;;8.70;99.90;;;;;;5040079;28;20037;-72
2021/11/28 02:51:01;;;;;;;3.13;1.20;;;8.70;99.90;;;;;;5041162;28;20025;-72
2021/11/28 02:54:07;;;;;;;3.95;1.90;;;8.70;99.90;;;;;;5041894;28;20029;-73
2021/11/28 02:57:12;;;;;;;2.72;1.23;;;8.70;99.90;;;;;;5026238;28;20037;-73
2021/11/28 03:00:17;;;;;;;2.55;1.00;;;8.70;99.90;;;;;;5023337;28;20037;-72
2021/11/28 03:03:21;;;;;;;3.95;1.20;;;8.60;99.90;;;;;;5024358;28;20037;-72
2021/11/28 03:06:28;;;;;;;5.70;1.75;;;8.60;99.90;;;;;;5036559;28;20520;-72
2021/11/28 03:09:32;;;;;;;3.35;1.45;;;8.70;99.90;;;;;;5035714;28;20045;-72
2021/11/28 03:12:36;;;;;;;5.63;0.90;;;8.60;99.90;;;;;;5027905;28;20472;-72
2021/11/28 03:15:40;;;;;;;6.82;0.90;;;8.60;99.90;;;;;;5027890;28;20053;-72
2021/11/28 03:18:45;;;;;;;8.25;2.00;;;8.60;99.90;;;;;;5027821;28;20037;-72
2021/11/28 03:21:49;;;;;;;5.65;1.15;;;8.50;99.90;;;;;;5028907;28;20484;-72
2021/11/28 03:24:53;;;;;;;10.85;1.85;;;8.50;99.90;;;;;;5031097;28;20042;-72
2021/11/28 03:27:58;;;;;;;9.93;1.00;;;8.50;99.90;;;;;;5034570;28;20045;-72
2021/11/28 03:31:04;;;;;;;9.77;1.40;;;8.60;99.90;;;;;;5041927;28;20480;-73
2021/11/28 03:34:28;;;;;;;4.10;1.27;;;8.60;99.90;;;;;;5029790;28;20464;-72
2021/11/28 03:37:33;;;;;;;6.75;1.42;;;8.70;99.90;;;;;;5041117;28;20049;-72
2021/11/28 03:40:38;;;;;;;6.50;1.42;;;8.70;99.90;;;;;;5041569;28;20042;-72
2021/11/28 03:43:44;;;;;;;7.88;1.15;;;8.60;99.90;;;;;;5042327;28;20045;-72
2021/11/28 03:46:49;;;;;;;12.05;1.75;;;8.50;99.90;;;;;;5045138;28;20041;-72
2021/11/28 03:49:53;;;;;;;4.95;1.30;;;8.40;99.90;;;;;;5038814;28;20121;-72
2021/11/28 03:52:57;;;;;;;11.32;1.77;;;8.40;99.90;;;;;;5027293;28;20042;-72
2021/11/28 03:56:05;;;;;;;8.90;1.80;;;8.30;99.90;;;;;;5041452;28;20052;-72
2021/11/28 03:59:09;;;;;;;10.45;1.45;;;8.30;99.90;;;;;;5036661;28;20037;-73
2021/11/28 04:02:14;;;;;;;8.90;1.50;;;8.30;99.90;;;;;;5035524;28;20056;-72
2021/11/28 04:05:18;;;;;;;15.75;2.08;;;8.30;99.90;;;;;;5043462;28;20045;-72
2021/11/28 04:08:28;;;;;;;7.55;1.80;;;8.30;99.90;;;;;;5029455;28;20503;-72
2021/11/28 04:11:32;;;;;;;7.40;2.00;;;8.20;99.90;;;;;;5033547;28;20045;-72
2021/11/28 04:14:36;;;;;;;8.20;1.73;;;8.30;99.90;;;;;;5036525;28;20045;-72
2021/11/28 04:17:41;;;;;;;9.55;1.83;;;8.20;99.90;;;;;;5041133;28;20038;-72
2021/11/28 04:20:46;;;;;;;10.43;1.75;;;8.20;99.90;;;;;;5031236;28;20041;-72
2021/11/28 04:23:50;;;;;;;5.80;2.08;;;8.20;99.90;;;;;;5034231;28;20056;-72
2021/11/28 04:26:54;;;;;;;12.45;2.00;;;8.10;99.90;;;;;;5042898;28;20038;-73
2021/11/28 04:29:58;;;;;;;9.05;1.40;;;8.20;99.90;;;;;;5031589;28;20047;-72
2021/11/28 04:33:03;;;;;;;4.70;1.60;;;8.10;99.90;;;;;;5035357;28;20042;-72
2021/11/28 04:36:09;;;;;;;12.70;1.88;;;8.20;99.90;;;;;;5028361;28;20426;-72
2021/11/28 04:39:13;;;;;;;9.48;2.00;;;8.20;99.90;;;;;;5039975;28;20045;-73
2021/11/28 04:42:17;;;;;;;7.32;1.25;;;8.20;99.90;;;;;;5037665;28;20033;-72
2021/11/28 04:45:24;;;;;;;15.00;2.05;;;8.20;99.90;;;;;;5026758;28;20037;-72
2021/11/28 04:48:29;;;;;;;13.20;2.20;;;8.10;99.90;;;;;;5038458;28;20398;-72
2021/11/28 04:51:42;;;;;;;8.60;1.55;;;8.10;99.90;;;;;;5034060;28;20049;-72
2021/11/28 04:54:47;;;;;;;12.23;2.58;;;8.10;99.90;;;;;;5035280;28;20464;-72
2021/11/28 04:57:52;;;;;;;16.40;2.63;;;8.20;99.90;;;;;;5042667;28;20380;-72
2021/11/28 05:00:56;;;;;;;10.85;1.73;;;8.20;99.90;;;;;;5043981;28;20040;-72
2021/11/28 05:04:00;;;;;;;8.60;2.00;;;8.20;99.90;;;;;;5031527;28;20036;-72
2021/11/28 05:07:16;;;;;;;8.00;1.48;;;8.20;99.90;;;;;;5029414;28;20034;-72
2021/11/28 05:10:31;;;;;;;18.23;1.60;;;8.20;99.90;;;;;;5027222;28;20381;-72
2021/11/28 05:13:37;;;;;;;6.43;1.90;;;8.40;99.90;;;;;;5031622;28;20040;-72
2021/11/28 05:16:41;;;;;;;7.97;1.65;;;8.30;99.90;;;;;;5040308;28;20365;-73
2021/11/28 05:20:07;;;;;;;10.82;2.40;;;8.30;99.90;;;;;;5042726;28;20461;-72
2021/11/28 05:23:20;;;;;;;10.20;3.20;;;8.30;99.90;;;;;;5043455;28;20033;-72
2021/11/28 05:26:24;;;;;;;13.60;2.15;;;8.10;99.90;;;;;;5037111;28;20041;-72
2021/11/28 05:29:27;;;;;;;10.63;2.40;;;8.00;99.90;;;;;;5039687;28;20044;-72
2021/11/28 05:32:31;;;;;;;10.10;1.88;;;7.90;99.90;;;;;;5032959;28;20049;-72
2021/11/28 05:35:54;;;;;;;11.02;2.28;;;7.90;99.90;;;;;;5032875;28;20044;-72
2021/11/28 05:39:18;;;;;;;9.05;1.90;;;7.90;99.90;;;;;;5031384;28;20048;-72
2021/11/28 05:42:23;;;;;;;18.73;2.47;;;7.90;99.90;;;;;;5026645;28;20041;-72
2021/11/28 05:45:28;;;;;;;8.20;1.80;;;7.80;99.90;;;;;;5032485;28;20487;-72
2021/11/28 05:49:10;;;;;;;5.38;1.52;;;7.80;99.90;;;;;;5027251;28;20029;-72
2021/11/28 05:52:47;;;;;;;15.05;2.30;;;7.80;99.90;;;;;;5038056;28;20049;-72
2021/11/28 05:55:52;;;;;;;12.48;1.98;;;7.80;99.90;;;;;;5040459;28;20048;-72
2021/11/28 05:58:57;;;;;;;9.27;1.77;;;7.80;99.90;;;;;;5041100;28;20064;-72
2021/11/28 06:02:02;;;;;;;10.93;1.73;;;7.70;99.90;;;;;;5042608;28;20045;-71
2021/11/28 06:05:07;;;;;;;12.30;1.77;;;7.70;99.90;;;;;;5038638;28;20041;-72
2021/11/28 06:08:25;;;;;;;14.27;1.77;;;7.80;99.90;;;;;;5036575;28;20068;-72
2021/11/28 06:11:32;;;;;;;13.70;1.83;;;7.80;99.90;;;;;;5038087;28;20056;-72
2021/11/28 06:14:36;;;;;;;11.75;1.63;;;7.80;99.90;;;;;;5022508;28;20392;-72
2021/11/28 06:17:58;;;;;;;10.55;1.88;;;7.80;99.90;;;;;;5038237;28;20052;-72
2021/11/28 06:21:19;;;;;;;9.50;1.80;;;7.80;99.90;;;;;;5042625;28;20052;-72
2021/11/28 06:24:38;;;;;;;11.68;1.92;;;7.70;99.90;;;;;;5033977;28;20037;-72
2021/11/28 06:27:47;;;;;;;14.63;2.47;;;7.70;99.90;;;;;;5030855;28;20052;-71
2021/11/28 06:30:52;;;;;;;6.57;1.40;;;7.70;99.90;;;;;;5033150;28;20049;-73
2021/11/28 06:34:15;;;;;;;9.98;1.65;;;7.80;99.90;;;;;;5028463;28;20464;-72
2021/11/28 06:37:37;;;;;;;12.73;2.30;;;7.80;99.90;;;;;;5028174;28;20045;-72
2021/11/28 06:41:00;;;;;;;13.25;1.75;;;7.70;99.90;;;;;;5031783;28;20049;-72
2021/11/28 06:44:06;;;;;;;13.52;2.35;;;7.60;99.90;;;;;;5040191;28;20044;-72
2021/11/28 06:47:13;;;;;;;11.95;2.03;;;7.60;99.90;;;;;;5031669;28;20040;-72
2021/11/28 06:50:18;;;;;;;18.05;2.58;;;7.60;99.90;;;;;;5035046;28;20048;-72
2021/11/28 06:53:41;;;;;;;14.65;2.10;;;7.60;99.90;;;;;;5028128;28;20044;-72
2021/11/28 06:57:05;;;;;;;7.65;1.67;;;7.60;99.90;;;;;;5031426;28;20048;-72
2021/11/28 07:00:11;;;;;;;18.90;3.58;;;7.70;99.90;;;;;;5025743;28;20038;-72
2021/11/28 07:03:15;;;;;;;12.65;3.53;;;7.80;99.90;;;;;;5032151;28;20040;-72
2021/11/28 07:06:42;;;;;;;12.18;1.58;;;7.90;99.90;;;;;;5028337;28;20069;-72
2021/11/28 07:09:48;;;;;;;10.40;2.13;;;8.30;99.90;;;;;;5045682;28;20048;-72
2021/11/28 07:12:52;;;;;;;18.85;1.98;;;8.40;99.90;;;;;;5044121;28;20045;-72
2021/11/28 07:15:59;;;;;;;11.00;2.47;;;8.50;99.90;;;;;;5034580;28;20784;-71
2021/11/28 07:19:18;;;;;;;16.20;2.92;;;8.40;99.90;;;;;;5044956;28;20056;-72
2021/11/28 07:23:02;;;;;;;12.60;1.45;;;8.40;99.90;;;;;;5033835;28;20511;-72
2021/11/28 07:26:08;;;;;;;9.93;1.73;;;8.60;99.90;;;;;;5045619;28;20590;-72
2021/11/28 07:29:20;;;;;;;11.98;1.52;;;8.60;99.90;;;;;;5034858;28;20033;-72
2021/11/28 07:32:24;;;;;;;7.55;1.70;;;8.70;99.90;;;;;;5039760;28;20060;-72
2021/11/28 07:35:46;;;;;;;12.27;2.90;;;8.90;99.90;;;;;;5035033;28;20464;-72
2021/11/28 07:38:57;;;;;;;8.40;1.85;;;9.10;99.90;;;;;;5032159;28;20049;-72
2021/11/28 07:42:01;;;;;;;6.20;1.95;;;9.30;99.90;;;;;;5039690;28;20033;-71
2021/11/28 07:45:32;;;;;;;9.95;1.83;;;9.40;99.90;;;;;;5034766;28;20037;-72
2021/11/28 07:49:05;;;;;;;12.00;1.92;;;10.10;99.90;;;;;;5033926;28;20037;-72
2021/11/28 07:52:10;;;;;;;8.80;1.73;;;10.80;99.90;;;;;;5032815;28;20044;-73
2021/11/28 07:55:14;;;;;;;10.75;2.38;;;11.70;99.90;;;;;;5034144;28;20048;-72
2021/11/28 07:58:37;;;;;;;13.55;1.50;;;13.70;99.90;;;;;;5029820;28;20495;-72
2021/11/28 08:01:55;;;;;;;13.60;2.88;;;17.10;99.90;;;;;;5032144;28;20116;-72
2021/11/28 08:05:25;;;;;;;7.03;1.63;;;19.50;98.40;;;;;;5031185;28;20052;-73
2021/11/28 08:08:48;;;;;;;8.05;1.60;;;20.50;94.20;;;;;;5031344;28;20048;-73
2021/11/28 08:12:09;;;;;;;7.50;1.42;;;18.50;94.80;;;;;;5034496;28;20495;-73
2021/11/28 08:15:18;;;;;;;4.93;1.15;;;17.00;96.20;;;;;;5034281;28;20041;-72
2021/11/28 08:18:22;;;;;;;5.82;1.50;;;15.80;98.40;;;;;;5027406;28;20139;-72
2021/11/28 08:21:27;;;;;;;5.85;1.40;;;15.40;98.60;;;;;;5031724;28;20645;-72
2021/11/28 08:24:30;;;;;;;10.05;1.35;;;15.50;98.40;;;;;;5029292;28;20048;-72
2021/11/28 08:27:35;;;;;;;6.03;1.13;;;15.00;97.40;;;;;;5029318;28;20048;-72
2021/11/28 08:30:41;;;;;;;9.05;1.77;;;13.70;99.30;;;;;;5036121;28;20048;-72
2021/11/28 08:34:04;;;;;;;9.93;1.45;;;12.70;99.90;;;;;;5033653;28;20032;-72
2021/11/28 08:37:31;;;;;;;6.95;1.33;;;12.40;99.90;;;;;;5031193;28;20053;-72
2021/11/28 08:40:37;;;;;;;11.18;1.88;;;12.90;99.90;;;;;;5032799;28;20127;-72
2021/11/28 08:43:42;;;;;;;5.82;1.45;;;14.40;99.90;;;;;;5029806;28;20060;-73
2021/11/28 08:46:46;;;;;;;4.82;1.33;;;18.40;98.20;;;;;;5030493;28;20048;-73
2021/11/28 08:49:51;;;;;;;6.65;1.45;;;22.50;93.30;;;;;;5033144;28;20052;-72
2021/11/28 08:52:55;;;;;;;7.25;1.30;;;25.10;86.00;;;;;;5032104;28;20048;-72
2021/11/28 08:55:59;;;;;;;4.38;1.40;;;26.40;82.40;;;;;;5032620;28;20052;-72
2021/11/28 08:59:03;;;;;;;6.95;1.30;;;26.00;82.70;;;;;;5032775;28;20497;-72
2021/11/28 09:02:10;;;;;;;5.35;1.30;;;23.90;74.70;;;;;;5029512;28;20036;-72
2021/11/28 09:05:18;;;;;;;6.07;1.27;;;23.20;80.10;;;;;;5026833;28;20036;-72
2021/11/28 09:08:23;;;;;;;10.98;1.60;;;22.40;84.80;;;;;;5031887;28;20039;-72
2021/11/28 09:11:27;;;;;;;6.05;1.35;;;21.30;81.40;;;;;;5027930;28;20368;-72
2021/11/28 09:14:31;;;;;;;16.65;2.13;;;19.90;84.10;;;;;;5033125;28;20048;-72
2021/11/28 09:17:36;;;;;;;8.60;1.75;;;17.30;86.30;;;;;;5029863;28;20052;-72
2021/11/28 09:20:44;;;;;;;12.93;1.92;;;16.50;87.90;;;;;;5029591;28;20072;-72
2021/11/28 09:27:13;;;;;;;9.82;1.58;;;15.70;91.60;;;;;;5025115;28;20039;-72
2021/11/28 09:30:19;;;;;;;7.65;1.63;;;14.20;92.90;;;;;;5024886;28;20041;-71
2021/11/28 09:33:23;;;;;;;6.35;1.33;;;14.70;93.40;;;;;;5027228;28;20475;-72
2021/11/28 09:36:29;;;;;;;9.02;1.40;;;15.80;93.00;;;;;;5030888;28;20041;-71
2021/11/28 09:39:32;;;;;;;10.30;1.70;;;15.70;91.90;;;;;;5031503;28;20082;-71
2021/11/28 09:42:39;;;;;;;6.10;1.60;;;14.40;93.20;;;;;;5028351;28;20396;-71
2021/11/28 09:45:45;;;;;;;5.13;1.42;;;15.10;93.30;;;;;;5029218;28;20044;-72
2021/11/28 09:48:57;;;;;;;6.97;1.40;;;16.30;93.20;;;;;;5031932;28;20052;-71
2021/11/28 09:52:06;;;;;;;5.15;1.27;;;17.80;90.60;;;;;;5031912;28;20376;-72
2021/11/28 09:55:11;;;;;;;9.30;1.90;;;18.50;91.50;;;;;;5028200;28;20040;-71
2021/11/28 09:58:16;;;;;;;10.20;1.42;;;17.40;90.80;;;;;;5025188;28;20078;-72
2021/11/28 10:01:21;;;;;;;8.25;1.58;;;17.90;90.20;;;;;;5026369;28;20040;-72
2021/11/28 10:04:25;;;;;;;7.50;1.55;;;17.40;91.30;;;;;;5026763;28;20045;-71
2021/11/28 10:07:29;;;;;;;8.30;1.52;;;14.60;91.20;;;;;;5031996;28;20044;-71
2021/11/28 10:10:37;;;;;;;7.47;1.63;;;13.70;94.10;;;;;;5039059;28;20045;-71
2021/11/28 10:13:41;;;;;;;10.88;2.05;;;13.20;96.90;;;;;;5028710;28;20684;-71
2021/11/28 10:16:45;;;;;;;6.75;1.58;;;12.90;98.00;;;;;;5029203;28;20048;-71
2021/11/28 10:19:49;;;;;;;11.73;2.55;;;12.80;97.90;;;;;;5028738;28;20044;-71
2021/11/28 10:22:54;;;;;;;11.77;1.58;;;12.70;99.00;;;;;;5031938;28;20051;-71
2021/11/28 10:26:17;;;;;;;11.25;1.70;;;12.10;99.50;;;;;;5032064;28;20057;-71
2021/11/28 10:29:23;;;;;;;6.05;1.55;;;12.30;99.90;;;;;;5027844;28;20032;-71
2021/11/28 10:32:27;;;;;;;5.88;1.67;;;13.10;98.10;;;;;;5026565;28;20125;-70
2021/11/28 10:35:31;;;;;;;10.18;1.90;;;13.50;96.90;;;;;;5031909;28;20045;-71
2021/11/28 10:38:38;;;;;;;6.85;1.55;;;13.10;96.20;;;;;;5027091;28;20052;-71
2021/11/28 10:41:55;;;;;;;6.35;1.13;;;13.30;96.70;;;;;;5028598;28;20048;-71
2021/11/28 10:45:15;;;;;;;18.25;2.58;;;12.40;99.20;;;;;;5031703;28;20048;-71
2021/11/28 10:48:25;;;;;;;10.10;1.45;;;12.80;97.30;;;;;;5029195;28;20639;-71
2021/11/28 10:51:28;;;;;;;4.78;1.25;;;14.90;96.30;;;;;;5027929;28;20036;-71
2021/11/28 10:54:36;;;;;;;4.78;1.13;;;13.50;96.80;;;;;;5027020;28;20036;-71
2021/11/28 10:57:41;;;;;;;3.63;1.42;;;13.30;96.50;;;;;;5027759;28;20053;-71
2021/11/28 11:00:51;;;;;;;8.02;2.53;;;13.50;97.10;;;;;;5028584;28;20048;-71
2021/11/28 11:03:55;;;;;;;7.20;1.15;;;12.60;98.10;;;;;;5031481;28;20044;-70
2021/11/28 11:07:13;;;;;;;7.03;2.28;;;12.00;99.60;;;;;;5031247;28;20048;-71
2021/11/28 11:10:30;;;;;;;4.22;1.30;;;12.90;99.50;;;;;;5027127;28;20460;-70
2021/11/28 11:13:53;;;;;;;12.40;1.90;;;11.60;99.20;;;;;;5027099;28;20044;-70
2021/11/28 11:17:03;;;;;;;8.65;2.15;;;11.10;99.90;;;;;;5029943;28;20049;-71
2021/11/28 11:20:07;;;;;;;6.45;1.73;;;10.80;99.90;;;;;;5030606;28;20060;-71
2021/11/28 11:23:37;;;;;;;12.27;2.80;;;10.70;99.90;;;;;;5023905;28;20048;-70
2021/11/28 11:26:40;;;;;;;14.13;1.80;;;11.50;99.90;;;;;;5027800;28;20519;-71
2021/11/28 11:29:48;;;;;;;11.18;1.80;;;11.70;99.90;;;;;;5027819;28;20665;-70
2021/11/28 11:33:01;;;;;;;11.23;1.55;;;11.50;99.90;;;;;;5029309;28;20044;-70
2021/11/28 11:36:05;;;;;;;11.98;1.55;;;11.10;99.90;;;;;;5031309;28;20048;-70
2021/11/28 11:39:08;;;;;;;10.25;1.45;;;10.80;99.90;;;;;;5026300;28;20045;-71
2021/11/28 11:42:17;;;;;;;6.75;1.48;;;10.60;99.90;;;;;;5024573;28;20045;-70
2021/11/28 11:45:26;;;;;;;10.15;2.50;;;10.30;99.90;;;;;;5023927;28;20036;-70
2021/11/28 11:48:29;;;;;;;4.70;1.83;;;10.20;99.90;;;;;;5025077;28;20045;-70
2021/11/28 11:51:33;;;;;;;5.07;1.38;;;10.20;99.90;;;;;;5026490;28;20048;-70
2021/11/28 11:54:50;;;;;;;5.90;1.17;;;9.90;99.90;;;;;;5030737;28;20037;-70
2021/11/28 11:58:18;;;;;;;9.43;1.00;;;9.90;99.90;;;;;;5034768;28;20037;-70
2021/11/28 12:01:28;;;;;;;6.72;1.35;;;9.70;99.90;;;;;;5028886;28;20042;-68
2021/11/28 12:04:41;;;;;;;7.15;2.00;;;9.30;99.90;;;;;;5034731;28;20033;-69
2021/11/28 12:07:50;;;;;;;8.40;1.23;;;9.00;99.90;;;;;;5031465;28;20377;-69
2021/11/28 12:11:07;;;;;;;6.25;1.40;;;8.90;99.90;;;;;;5032581;28;20030;-69
2021/11/28 12:14:11;;;;;;;8.60;1.40;;;8.90;99.90;;;;;;5026881;28;20030;-70
2021/11/28 12:17:41;;;;;;;8.88;1.30;;;8.60;99.90;;;;;;5032017;28;20346;-71
2021/11/28 12:20:45;;;;;;;8.30;1.65;;;8.50;99.90;;;;;;5032713;28;20041;-72
2021/11/28 12:24:16;;;;;;;6.13;1.17;;;8.50;99.90;;;;;;5033449;28;20049;-71
2021/11/28 12:27:38;;;;;;;4.75;1.10;;;8.20;99.90;;;;;;5030908;28;20037;-71
2021/11/28 12:30:57;;;;;;;4.15;0.93;;;8.10;99.90;;;;;;5032136;28;20038;-71
2021/11/28 12:34:03;;;;;;;7.55;0.93;;;7.90;99.90;;;;;;5043586;28;20038;-71
2021/11/28 12:37:22;;;;;;;4.18;1.05;;;7.80;99.90;;;;;;5025948;28;20460;-72
2021/11/28 12:40:29;;;;;;;7.10;0.85;;;7.50;99.90;;;;;;5028225;28;20860;-71
2021/11/28 12:43:32;;;;;;;4.38;0.90;;;7.40;99.90;;;;;;5033932;28;20377;-72
2021/11/28 12:46:49;;;;;;;6.63;1.08;;;7.20;99.90;;;;;;5029397;28;20701;-71
2021/11/28 12:50:16;;;;;;;7.85;1.17;;;7.10;99.90;;;;;;5031328;28;20033;-71
2021/11/28 12:53:37;;;;;;;6.20;1.25;;;6.90;99.90;;;;;;5027451;28;20030;-72
2021/11/28 12:56:41;;;;;;;11.13;1.83;;;6.70;99.90;;;;;;5030092;28;20038;-70
2021/11/28 13:00:21;;;;;;;2.63;0.90;;;6.30;99.90;;;;;;5030662;28;20080;-72
2021/11/28 13:03:26;;;;;;;8.40;1.00;;;6.10;99.90;;;;;;5027821;28;20033;-71
2021/11/28 13:06:33;;;;;;;4.47;1.77;;;5.60;99.90;;;;;;5033218;28;20049;-70
2021/11/28 13:09:39;;;;;;;10.38;1.00;;;5.50;99.90;;;;;;5028649;28;20045;-72
2021/11/28 13:12:43;;;;;;;5.00;1.50;;;5.40;99.90;;;;;;5030091;28;20044;-71
2021/11/28 13:16:01;;;;;;;3.47;1.27;;;5.30;99.90;;;;;;5030893;28;20037;-71
2021/11/28 13:19:05;;;;;;;6.38;2.60;;;5.40;99.90;;;;;;5032214;28;20037;-71
2021/11/28 13:22:37;;;;;;;6.30;2.53;;;5.40;99.90;;;;;;5028005;28;20034;-71
2021/11/28 13:25:59;;;;;;;4.43;1.80;;;5.40;99.90;;;;;;5031740;28;20041;-72
2021/11/28 13:29:10;;;;;;;9.68;5.78;;;5.50;99.90;;;;;;5032535;28;20037;-71
2021/11/28 13:32:14;;;;;;;8.00;3.60;;;5.60;99.90;;;;;;5035020;28;20038;-71
2021/11/28 13:35:22;;;;;;;8.30;2.30;;;5.70;99.90;;;;;;5029146;28;20069;-71
2021/11/28 13:38:29;;;;;;;6.18;2.75;;;5.80;99.90;;;;;;5026694;28;20049;-71
2021/11/28 13:41:33;;;;;;;11.45;4.30;;;6.00;99.90;;;;;;5032696;28;20449;-71
2021/11/28 13:44:37;;;;;;;14.45;6.88;;;7.10;99.90;;;;;;5028620;28;20052;-72
2021/11/28 13:47:50;;;;;;;6.63;2.38;;;8.80;99.90;;;;;;5031492;28;20052;-71
2021/11/28 13:50:53;;;;;;;8.18;4.07;;;8.80;99.90;;;;;;5030577;28;20349;-71
2021/11/28 13:53:57;;;;;;;7.53;2.63;;;8.70;99.90;;;;;;5032697;28;20476;-71
2021/11/28 13:57:17;;;;;;;16.80;11.45;;;8.60;99.90;;;;;;5032313;28;20361;-71
2021/11/28 14:00:21;;;;;;;4.28;1.42;;;8.30;99.90;;;;;;5032012;28;20040;-71
2021/11/28 14:03:25;;;;;;;11.77;6.00;;;8.10;99.90;;;;;;5032384;28;20049;-71
2021/11/28 14:06:29;;;;;;;13.55;7.68;;;7.90;99.90;;;;;;5031020;28;20048;-71
2021/11/28 14:09:37;;;;;;;16.08;10.43;;;7.60;99.90;;;;;;5028213;28;20060;-71
2021/11/28 14:12:47;;;;;;;9.05;4.25;;;7.50;99.90;;;;;;5028460;28;20041;-71
2021/11/28 14:15:53;;;;;;;4.95;1.80;;;7.20;99.90;;;;;;5029663;28;20045;-71
2021/11/28 14:19:01;;;;;;;5.45;1.38;;;7.10;99.90;;;;;;5029936;28;20042;-71
2021/11/28 14:22:31;;;;;;;9.05;1.77;;;6.90;99.90;;;;;;5031760;28;20488;-71
2021/11/28 14:25:49;;;;;;;10.02;3.78;;;6.70;99.90;;;;;;5027788;28;20038;-71
2021/11/28 14:28:53;;;;;;;8.10;3.53;;;6.70;99.90;;;;;;5029302;28;20044;-71
2021/11/28 14:31:58;;;;;;;8.35;1.75;;;6.80;99.90;;;;;;5031871;28;20041;-70
2021/11/28 14:35:21;;;;;;;6.40;0.98;;;7.00;99.90;;;;;;5031015;28;20037;-70
2021/11/28 14:38:25;;;;;;;7.40;1.80;;;7.40;99.90;;;;;;5031263;28;20037;-71
2021/11/28 14:41:42;;;;;;;8.48;1.30;;;8.50;99.90;;;;;;5031946;28;20061;-71
2021/11/28 14:44:51;;;;;;;8.63;2.78;;;8.60;99.90;;;;;;5028983;28;20037;-71
2021/11/28 14:48:32;;;;;;;6.78;3.90;;;8.70;99.90;;;;;;5029947;28;20041;-71
2021/11/28 14:51:46;;;;;;;7.75;2.75;;;8.60;99.90;;;;;;4973660;28;20034;-70
2021/11/28 14:54:50;;;;;;;9.38;2.95;;;7.80;99.90;;;;;;5029298;28;20034;-70
2021/11/28 14:57:54;;;;;;;5.95;2.53;;;7.20;99.90;;;;;;5031616;28;20045;-70
2021/11/28 15:01:19;;;;;;;9.30;2.22;;;6.90;99.90;;;;;;5031271;28;20049;-71
2021/11/28 15:04:26;;;;;;;13.68;4.20;;;6.70;99.90;;;;;;5027912;28;20346;-71
2021/11/28 15:07:32;;;;;;;7.45;1.48;;;6.60;99.90;;;;;;5026334;28;20060;-70
2021/11/28 15:10:36;;;;;;;6.85;1.83;;;6.50;99.90;;;;;;5023411;28;20037;-70
2021/11/28 15:13:41;;;;;;;5.65;2.28;;;6.40;99.90;;;;;;5027961;28;20041;-70
2021/11/28 15:16:45;;;;;;;11.27;2.25;;;6.40;99.90;;;;;;5028307;28;20034;-70
2021/11/28 15:20:00;;;;;;;15.70;2.40;;;6.40;99.90;;;;;;5030434;28;20049;-70
2021/11/28 15:23:05;;;;;;;6.55;1.75;;;6.40;99.90;;;;;;5031273;28;20048;-70
2021/11/28 15:26:09;;;;;;;6.03;1.73;;;6.40;99.90;;;;;;5025323;28;20038;-70
2021/11/28 15:29:14;;;;;;;9.85;2.45;;;6.40;99.90;;;;;;5026501;28;20033;-70
2021/11/28 15:32:18;;;;;;;5.28;1.48;;;6.40;99.90;;;;;;5035312;28;20029;-71
2021/11/28 15:35:24;;;;;;;10.93;2.80;;;6.30;99.90;;;;;;5034716;28;20041;-71
2021/11/28 15:38:28;;;;;;;4.75;1.73;;;6.40;99.90;;;;;;5031543;28;20061;-70
2021/11/28 15:41:32;;;;;;;3.65;1.10;;;6.50;99.90;;;;;;5035250;28;20045;-69
2021/11/28 15:44:36;;;;;;;7.60;1.52;;;6.50;99.90;;;;;;5030034;28;20381;-70
2021/11/28 15:47:40;;;;;;;15.15;5.40;;;6.30;99.90;;;;;;5032509;28;20045;-71
2021/11/28 15:50:44;;;;;;;6.30;2.25;;;5.80;99.90;;;;;;5031580;28;20045;-70
2021/11/28 15:53:48;;;;;;;6.35;2.58;;;5.70;99.90;;;;;;5034685;28;20370;-71
2021/11/28 15:56:52;;;;;;;6.85;2.38;;;5.70;99.90;;;;;;5032743;28;20041;-71
2021/11/28 15:59:57;;;;;;;13.30;4.47;;;5.60;99.90;;;;;;5032654;28;20033;-71
2021/11/28 16:03:01;;;;;;;4.53;1.48;;;5.60;99.90;;;;;;5034737;28;20483;-71
2021/11/28 16:06:05;;;;;;;3.67;1.55;;;5.60;99.90;;;;;;5034619;28;20030;-71
2021/11/28 16:09:09;;;;;;;12.02;7.20;;;5.60;99.90;;;;;;5033864;28;20033;-71
2021/11/28 16:12:13;;;;;;;11.50;2.95;;;5.60;99.90;;;;;;5027103;28;20040;-72
2021/11/28 16:15:17;;;;;;;13.07;3.83;;;5.40;99.90;;;;;;5034507;28;20044;-71
2021/11/28 16:18:22;;;;;;;5.18;2.88;;;5.20;99.90;;;;;;5033116;28;20048;-72
2021/11/28 16:21:27;;;;;;;6.40;1.95;;;5.10;99.90;;;;;;5031182;28;20049;-71
2021/11/28 16:24:31;;;;;;;5.03;1.88;;;5.00;99.90;;;;;;5029357;28;20053;-71
2021/11/28 16:27:35;;;;;;;8.32;2.92;;;5.00;99.90;;;;;;5029914;28;20033;-72
2021/11/28 16:30:45;;;;;;;5.25;3.17;;;4.90;99.90;;;;;;5030500;28;20038;-72
2021/11/28 16:33:50;;;;;;;9.98;2.40;;;4.90;99.90;;;;;;5031725;28;20033;-70
2021/11/28 16:36:54;;;;;;;8.13;2.60;;;4.80;99.90;;;;;;5034095;28;20034;-71
2021/11/28 16:39:57;;;;;;;5.57;2.30;;;4.90;99.90;;;;;;5033348;28;20041;-72